Time,TemperatureF,DewpointF,PressureIn,WindDirection,WindDirectionDegrees,WindSpeedMPH,WindSpeedGustMPH,Humidity,HourlyPrecipIn,Conditions,Clouds,dailyrainin,SoftwareType,DateUTC
2013-08-24 00:01:00,73.3,69.9,30.03,NE,54,0.0,0.0,89,0.00,,---,0.00,VWS V14.00,2013-08-24 05:01:00,
2013-08-24 00:06:00,73.2,69.8,30.04,NE,54,0.0,0.0,89,0.00,,---,0.00,VWS V14.00,2013-08-24 05:06:00,
2013-08-24 00:11:00,73.0,69.6,30.04,NE,54,0.0,0.0,89,0.00,,---,0.00,VWS V14.00,2013-08-24 05:11:00,
2013-08-24 00:16:00,73.0,69.6,30.04,NE,54,0.0,0.0,89,0.00,,---,0.00,VWS V14.00,2013-08-24 05:16:00,
2013-08-24 00:21:00,72.8,69.7,30.04,NE,54,0.0,0.0,90,0.00,,---,0.00,VWS V14.00,2013-08-24 05:21:00,
2013-08-24 00:26:00,72.8,69.7,30.04,NE,54,0.0,0.0,90,0.00,,---,0.00,VWS V14.00,2013-08-24 05:26:00,
2013-08-24 00:31:00,72.8,69.7,30.04,NE,54,0.0,0.0,90,0.00,,---,0.00,VWS V14.00,2013-08-24 05:31:00,
2013-08-24 00:36:00,72.7,69.6,30.04,NE,54,0.0,0.0,90,0.00,,---,0.00,VWS V14.00,2013-08-24 05:36:00,
2013-08-24 00:41:00,72.5,69.4,30.04,NE,54,0.0,0.0,90,0.00,,---,0.00,VWS V14.00,2013-08-24 05:41:00,
2013-08-24 00:46:00,72.5,69.4,30.04,NE,54,0.0,0.0,90,0.00,,---,0.00,VWS V14.00,2013-08-24 05:46:00,
2013-08-24 00:51:00,72.3,69.2,30.04,NE,54,0.0,0.0,90,0.00,,---,0.00,VWS V14.00,2013-08-24 05:51:00,
2013-08-24 00:56:00,72.3,69.2,30.04,NE,54,0.0,0.0,90,0.00,,---,0.00,VWS V14.00,2013-08-24 05:56:00,
2013-08-24 01:01:00,72.1,69.0,30.04,NE,54,0.0,0.0,90,0.00,,---,0.00,VWS V14.00,2013-08-24 06:01:00,
2013-08-24 01:06:00,72.1,69.0,30.04,NE,53,0.0,0.0,90,0.00,,---,0.00,VWS V14.00,2013-08-24 06:06:00,
2013-08-24 01:11:00,72.0,68.9,30.04,NE,54,0.0,0.0,90,0.00,,---,0.00,VWS V14.00,2013-08-24 06:11:00,
2013-08-24 01:16:00,72.0,69.2,30.04,NE,54,0.0,0.0,91,0.00,,---,0.00,VWS V14.00,2013-08-24 06:16:00,
2013-08-24 01:21:00,71.8,69.0,30.04,NE,54,0.0,0.0,91,0.00,,---,0.00,VWS V14.00,2013-08-24 06:21:00,
2013-08-24 01:26:00,71.8,69.0,30.04,NE,54,0.0,0.0,91,0.00,,---,0.00,VWS V14.00,2013-08-24 06:26:00,
2013-08-24 01:31:00,71.6,68.8,30.04,NE,54,0.0,0.0,91,0.00,,---,0.00,VWS V14.00,2013-08-24 06:31:00,
2013-08-24 01:36:00,71.6,68.8,30.04,NE,54,0.0,0.0,91,0.00,,---,0.00,VWS V14.00,2013-08-24 06:36:00,
2013-08-24 01:41:00,71.6,68.8,30.04,NE,54,0.0,0.0,91,0.00,,---,0.00,VWS V14.00,2013-08-24 06:41:00,
2013-08-24 01:46:00,71.6,68.8,30.04,NE,54,0.0,0.0,91,0.00,,---,0.00,VWS V14.00,2013-08-24 06:46:00,
2013-08-24 01:51:00,71.5,68.7,30.04,NE,54,0.0,0.0,91,0.00,,---,0.00,VWS V14.00,2013-08-24 06:51:00,
2013-08-24 01:56:00,71.5,68.7,30.05,NE,54,0.0,0.0,91,0.00,,---,0.00,VWS V14.00,2013-08-24 06:56:00,
2013-08-24 02:01:00,71.5,68.7,30.05,NE,54,0.0,0.0,91,0.00,,---,0.00,VWS V14.00,2013-08-24 07:01:00,
2013-08-24 02:06:00,71.5,68.7,30.05,NE,54,0.0,0.0,91,0.00,,---,0.00,VWS V14.00,2013-08-24 07:06:00,
2013-08-24 02:11:00,71.6,68.8,30.04,NE,54,0.0,0.0,91,0.00,,---,0.00,VWS V14.00,2013-08-24 07:11:00,
2013-08-24 02:16:00,71.5,68.7,30.05,NE,54,0.0,0.0,91,0.00,,---,0.00,VWS V14.00,2013-08-24 07:16:00,
2013-08-24 02:21:00,71.5,68.7,30.05,NE,54,0.0,0.0,91,0.00,,---,0.00,VWS V14.00,2013-08-24 07:21:00,
2013-08-24 02:26:00,71.1,68.3,30.05,NE,54,0.0,0.0,91,0.00,,---,0.00,VWS V14.00,2013-08-24 07:26:00,
2013-08-24 02:31:00,70.9,68.2,30.05,NE,54,0.0,0.0,91,0.00,,---,0.00,VWS V14.00,2013-08-24 07:31:00,
2013-08-24 02:36:00,70.9,68.2,30.05,NE,54,0.0,0.0,91,0.00,,---,0.00,VWS V14.00,2013-08-24 07:36:00,
2013-08-24 02:41:00,70.9,68.5,30.05,NE,54,0.0,0.0,92,0.00,,---,0.00,VWS V14.00,2013-08-24 07:41:00,
2013-08-24 02:46:00,70.8,68.1,30.05,NE,53,0.0,0.0,91,0.00,,---,0.00,VWS V14.00,2013-08-24 07:46:00,
2013-08-24 02:51:00,70.8,68.4,30.05,NE,54,0.0,0.0,92,0.00,,---,0.00,VWS V14.00,2013-08-24 07:51:00,
2013-08-24 02:56:00,70.6,68.2,30.06,NE,54,0.0,0.0,92,0.00,,---,0.00,VWS V14.00,2013-08-24 07:56:00,
2013-08-24 03:01:00,70.8,68.4,30.06,NE,54,0.0,0.0,92,0.00,,---,0.00,VWS V14.00,2013-08-24 08:01:00,
2013-08-24 03:06:00,70.6,68.2,30.06,NE,54,0.0,0.0,92,0.00,,---,0.00,VWS V14.00,2013-08-24 08:06:00,
2013-08-24 03:11:00,70.4,68.0,30.06,NE,54,0.0,0.0,92,0.00,,---,0.00,VWS V14.00,2013-08-24 08:11:00,
2013-08-24 03:16:00,70.4,68.0,30.06,NE,54,0.0,0.0,92,0.00,,---,0.00,VWS V14.00,2013-08-24 08:16:00,
2013-08-24 03:21:00,70.4,68.0,30.06,NE,54,0.0,0.0,92,0.00,,---,0.00,VWS V14.00,2013-08-24 08:21:00,
2013-08-24 03:25:00,70.6,68.2,30.06,NE,54,0.0,0.0,92,0.00,,---,0.00,VWS V14.00,2013-08-24 08:25:00,
2013-08-24 03:30:00,70.4,68.0,30.06,NE,54,0.0,0.0,92,0.00,,---,0.00,VWS V14.00,2013-08-24 08:30:00,
2013-08-24 03:35:00,70.4,68.0,30.07,NE,54,0.0,0.0,92,0.00,,---,0.00,VWS V14.00,2013-08-24 08:35:00,
2013-08-24 03:40:00,70.4,68.0,30.07,NE,54,0.0,0.0,92,0.00,,---,0.00,VWS V14.00,2013-08-24 08:40:00,
2013-08-24 03:45:00,70.4,68.0,30.07,NE,54,0.0,0.0,92,0.00,,---,0.00,VWS V14.00,2013-08-24 08:45:00,
2013-08-24 03:50:00,70.4,68.0,30.07,NE,54,0.0,0.0,92,0.00,,---,0.00,VWS V14.00,2013-08-24 08:50:00,
2013-08-24 03:55:00,70.1,67.7,30.07,NE,54,0.0,0.0,92,0.00,,---,0.00,VWS V14.00,2013-08-24 08:55:00,
2013-08-24 04:00:00,70.1,67.7,30.06,NE,54,0.0,0.0,92,0.00,,---,0.00,VWS V14.00,2013-08-24 09:00:00,
2013-08-24 04:05:00,70.3,68.2,30.07,NE,54,0.0,0.0,93,0.00,,---,0.00,VWS V14.00,2013-08-24 09:05:00,
2013-08-24 04:10:00,70.3,68.2,30.07,NE,54,0.0,0.0,93,0.00,,---,0.00,VWS V14.00,2013-08-24 09:10:00,
2013-08-24 04:15:00,70.1,68.0,30.07,NE,54,0.0,0.0,93,0.00,,---,0.00,VWS V14.00,2013-08-24 09:15:00,
2013-08-24 04:20:00,70.1,68.0,30.07,NE,54,0.0,0.0,93,0.00,,---,0.00,VWS V14.00,2013-08-24 09:20:00,
2013-08-24 04:25:00,69.9,67.8,30.07,NE,54,0.0,0.0,93,0.00,,---,0.00,VWS V14.00,2013-08-24 09:25:00,
2013-08-24 04:30:00,69.8,67.7,30.07,NE,54,0.0,0.0,93,0.00,,---,0.00,VWS V14.00,2013-08-24 09:30:00,
2013-08-24 04:35:00,69.9,68.1,30.07,NE,54,0.0,0.0,94,0.00,,---,0.00,VWS V14.00,2013-08-24 09:35:00,
2013-08-24 04:40:00,69.9,67.8,30.07,NE,54,0.0,0.0,93,0.00,,---,0.00,VWS V14.00,2013-08-24 09:40:00,
2013-08-24 04:45:00,69.9,67.8,30.07,NE,54,0.0,0.0,93,0.00,,---,0.00,VWS V14.00,2013-08-24 09:45:00,
2013-08-24 04:50:00,69.8,67.7,30.07,NE,53,0.0,0.0,93,0.00,,---,0.00,VWS V14.00,2013-08-24 09:50:00,
2013-08-24 04:55:00,69.8,67.7,30.07,NE,54,0.0,0.0,93,0.00,,---,0.00,VWS V14.00,2013-08-24 09:55:00,
2013-08-24 05:00:00,69.8,67.7,30.07,NE,54,0.0,0.0,93,0.00,,---,0.00,VWS V14.00,2013-08-24 10:00:00,
2013-08-24 05:05:00,69.8,67.7,30.07,NE,54,0.0,0.0,93,0.00,,---,0.00,VWS V14.00,2013-08-24 10:05:00,
2013-08-24 05:10:00,69.8,67.7,30.08,NE,54,0.0,0.0,93,0.00,,---,0.00,VWS V14.00,2013-08-24 10:10:00,
2013-08-24 05:15:00,69.6,67.5,30.08,NE,54,0.0,0.0,93,0.00,,---,0.00,VWS V14.00,2013-08-24 10:15:00,
2013-08-24 05:20:00,69.4,67.3,30.08,NE,53,0.0,1.0,93,0.00,,---,0.00,VWS V14.00,2013-08-24 10:20:00,
2013-08-24 05:25:00,69.1,67.0,30.08,NE,54,0.0,1.0,93,0.00,,---,0.00,VWS V14.00,2013-08-24 10:25:00,
2013-08-24 05:30:00,69.1,67.3,30.09,NE,54,0.0,1.0,94,0.00,,---,0.00,VWS V14.00,2013-08-24 10:30:00,
2013-08-24 05:35:00,69.3,67.5,30.09,NE,54,0.0,0.0,94,0.00,,---,0.00,VWS V14.00,2013-08-24 10:35:00,
2013-08-24 05:40:00,69.1,67.3,30.09,NE,54,0.0,1.0,94,0.00,,---,0.00,VWS V14.00,2013-08-24 10:40:00,
2013-08-24 05:45:00,68.9,67.1,30.09,NE,54,0.0,0.0,94,0.00,,---,0.00,VWS V14.00,2013-08-24 10:45:00,
2013-08-24 05:50:00,68.9,67.1,30.09,NE,54,0.0,0.0,94,0.00,,---,0.00,VWS V14.00,2013-08-24 10:50:00,
2013-08-24 05:55:00,68.9,67.1,30.09,NE,54,0.0,0.0,94,0.00,,---,0.00,VWS V14.00,2013-08-24 10:55:00,
2013-08-24 06:00:00,68.9,67.1,30.09,NE,54,0.0,0.0,94,0.00,,---,0.00,VWS V14.00,2013-08-24 11:00:00,
2013-08-24 06:05:00,69.1,67.3,30.09,NE,54,0.0,1.0,94,0.00,,---,0.00,VWS V14.00,2013-08-24 11:05:00,
2013-08-24 06:10:00,69.1,67.3,30.09,NE,54,0.0,0.0,94,0.00,,---,0.00,VWS V14.00,2013-08-24 11:10:00,
2013-08-24 06:15:00,69.1,67.3,30.09,NE,54,0.0,0.0,94,0.00,,---,0.00,VWS V14.00,2013-08-24 11:15:00,
2013-08-24 06:20:00,69.1,67.3,30.09,NE,54,0.0,0.0,94,0.00,,---,0.00,VWS V14.00,2013-08-24 11:20:00,
2013-08-24 06:25:00,69.1,67.3,30.09,NE,54,0.0,0.0,94,0.00,,---,0.00,VWS V14.00,2013-08-24 11:25:00,
2013-08-24 06:30:00,69.3,67.5,30.10,NE,54,0.0,0.0,94,0.00,,---,0.00,VWS V14.00,2013-08-24 11:30:00,
2013-08-24 06:35:00,69.1,67.3,30.10,NE,54,0.0,0.0,94,0.00,,---,0.00,VWS V14.00,2013-08-24 11:35:00,
2013-08-24 06:40:00,69.3,67.5,30.10,NE,54,0.0,0.0,94,0.00,,---,0.00,VWS V14.00,2013-08-24 11:40:00,
2013-08-24 06:45:00,69.4,67.6,30.10,NE,54,0.0,0.0,94,0.00,,---,0.00,VWS V14.00,2013-08-24 11:45:00,
2013-08-24 06:50:00,69.1,67.3,30.10,NE,54,0.0,0.0,94,0.00,,---,0.00,VWS V14.00,2013-08-24 11:50:00,
2013-08-24 06:55:00,68.9,67.1,30.10,NE,54,0.0,0.0,94,0.00,,---,0.00,VWS V14.00,2013-08-24 11:55:00,
2013-08-24 07:00:00,68.9,67.1,30.11,NE,54,0.0,0.0,94,0.00,,---,0.00,VWS V14.00,2013-08-24 12:00:00,
2013-08-24 07:05:00,69.1,67.3,30.11,NE,54,0.0,0.0,94,0.00,,---,0.00,VWS V14.00,2013-08-24 12:05:00,
2013-08-24 07:10:00,69.3,67.5,30.11,NE,54,0.0,0.0,94,0.00,,---,0.00,VWS V14.00,2013-08-24 12:10:00,
2013-08-24 07:15:00,69.3,67.5,30.11,NE,54,0.0,0.0,94,0.00,,---,0.00,VWS V14.00,2013-08-24 12:15:00,
2013-08-24 07:20:00,69.3,67.5,30.12,NE,54,0.0,0.0,94,0.00,,---,0.00,VWS V14.00,2013-08-24 12:20:00,
2013-08-24 07:25:00,69.1,67.3,30.12,NE,54,0.0,0.0,94,0.00,,---,0.00,VWS V14.00,2013-08-24 12:25:00,
2013-08-24 07:30:00,69.3,67.5,30.12,NE,54,0.0,0.0,94,0.00,,---,0.00,VWS V14.00,2013-08-24 12:30:00,
2013-08-24 07:35:00,69.4,67.6,30.12,NE,54,0.0,0.0,94,0.00,,---,0.00,VWS V14.00,2013-08-24 12:35:00,
2013-08-24 07:40:00,69.6,67.8,30.12,NE,54,0.0,0.0,94,0.00,,---,0.00,VWS V14.00,2013-08-24 12:40:00,
2013-08-24 07:45:00,69.9,68.1,30.13,NE,54,0.0,0.0,94,0.00,,---,0.00,VWS V14.00,2013-08-24 12:45:00,
2013-08-24 07:50:00,70.1,68.0,30.13,NE,54,0.0,0.0,93,0.00,,---,0.00,VWS V14.00,2013-08-24 12:50:00,
2013-08-24 07:55:00,70.3,68.2,30.13,NE,54,0.0,0.0,93,0.00,,---,0.00,VWS V14.00,2013-08-24 12:55:00,
2013-08-24 08:00:00,70.6,68.5,30.13,NE,54,0.0,0.0,93,0.00,,---,0.00,VWS V14.00,2013-08-24 13:00:00,
2013-08-24 08:05:00,70.8,68.4,30.13,NE,54,0.0,0.0,92,0.00,,---,0.00,VWS V14.00,2013-08-24 13:05:00,
2013-08-24 08:10:00,70.9,68.5,30.13,NE,54,0.0,0.0,92,0.00,,---,0.00,VWS V14.00,2013-08-24 13:10:00,
2013-08-24 08:15:00,71.5,69.1,30.13,NE,54,0.0,0.0,92,0.00,,---,0.00,VWS V14.00,2013-08-24 13:15:00,
2013-08-24 08:20:00,72.0,69.6,30.13,NE,54,0.0,0.0,92,0.00,,---,0.00,VWS V14.00,2013-08-24 13:20:00,
2013-08-24 08:25:00,72.1,69.3,30.13,NE,54,0.0,0.0,91,0.00,,---,0.00,VWS V14.00,2013-08-24 13:25:00,
2013-08-24 08:30:00,72.5,69.7,30.14,NE,54,0.0,0.0,91,0.00,,---,0.00,VWS V14.00,2013-08-24 13:30:00,
2013-08-24 08:35:00,73.0,69.9,30.14,NE,54,0.0,0.0,90,0.00,,---,0.00,VWS V14.00,2013-08-24 13:35:00,
2013-08-24 08:40:00,73.2,69.8,30.14,NE,54,0.0,0.0,89,0.00,,---,0.00,VWS V14.00,2013-08-24 13:40:00,
2013-08-24 08:45:00,73.2,69.8,30.13,NE,54,0.0,0.0,89,0.00,,---,0.00,VWS V14.00,2013-08-24 13:45:00,
2013-08-24 08:50:00,73.3,69.9,30.13,NE,54,0.0,0.0,89,0.00,,---,0.00,VWS V14.00,2013-08-24 13:50:00,
2013-08-24 08:55:00,73.7,69.9,30.13,NE,54,0.0,0.0,88,0.00,,---,0.00,VWS V14.00,2013-08-24 13:55:00,
2013-08-24 09:00:00,74.4,70.6,30.13,NE,54,0.0,0.0,88,0.00,,---,0.00,VWS V14.00,2013-08-24 14:00:00,
2013-08-24 09:05:00,75.3,71.2,30.13,NE,54,0.0,0.0,87,0.00,,---,0.00,VWS V14.00,2013-08-24 14:05:00,
2013-08-24 09:10:00,76.0,71.9,30.13,NE,54,0.0,0.0,87,0.00,,---,0.00,VWS V14.00,2013-08-24 14:10:00,
2013-08-24 09:15:00,76.1,71.6,30.14,NE,54,0.0,0.0,86,0.00,,---,0.00,VWS V14.00,2013-08-24 14:15:00,
2013-08-24 09:20:00,76.5,72.0,30.13,NE,54,0.0,0.0,86,0.00,,---,0.00,VWS V14.00,2013-08-24 14:20:00,
2013-08-24 09:25:00,77.2,72.0,30.13,NE,54,0.0,0.0,84,0.00,,---,0.00,VWS V14.00,2013-08-24 14:25:00,
2013-08-24 09:30:00,77.7,72.1,30.13,NE,54,0.0,0.0,83,0.00,,---,0.00,VWS V14.00,2013-08-24 14:30:00,
2013-08-24 09:35:00,78.1,72.5,30.13,NE,54,0.0,0.0,83,0.00,,---,0.00,VWS V14.00,2013-08-24 14:35:00,
2013-08-24 09:40:00,78.3,72.4,30.13,NE,54,0.0,0.0,82,0.00,,---,0.00,VWS V14.00,2013-08-24 14:40:00,
2013-08-24 09:45:00,78.5,72.6,30.13,NE,54,0.0,0.0,82,0.00,,---,0.00,VWS V14.00,2013-08-24 14:45:00,
2013-08-24 09:50:00,79.0,72.7,30.13,NE,54,0.0,0.0,81,0.00,,---,0.00,VWS V14.00,2013-08-24 14:50:00,
2013-08-24 09:55:00,79.6,72.9,30.13,NE,54,0.0,0.0,80,0.00,,---,0.00,VWS V14.00,2013-08-24 14:55:00,
2013-08-24 10:00:00,79.9,72.8,30.13,NE,54,0.0,0.0,79,0.00,,---,0.00,VWS V14.00,2013-08-24 15:00:00,
2013-08-24 10:05:00,80.1,73.0,30.14,NE,54,0.0,0.0,79,0.00,,---,0.00,VWS V14.00,2013-08-24 15:05:00,
2013-08-24 10:10:00,80.7,73.2,30.13,NE,54,0.0,0.0,78,0.00,,---,0.00,VWS V14.00,2013-08-24 15:10:00,
2013-08-24 10:15:00,81.1,73.6,30.14,NE,54,0.0,0.0,78,0.00,,---,0.00,VWS V14.00,2013-08-24 15:15:00,
2013-08-24 10:20:00,81.2,72.9,30.13,NE,54,0.0,0.0,76,0.00,,---,0.00,VWS V14.00,2013-08-24 15:20:00,
2013-08-24 10:25:00,81.6,72.9,30.13,NE,54,0.0,0.0,75,0.00,,---,0.00,VWS V14.00,2013-08-24 15:25:00,
2013-08-24 10:30:00,81.8,72.3,30.13,ENE,61,0.0,0.0,73,0.00,,---,0.00,VWS V14.00,2013-08-24 15:30:00,
2013-08-24 10:35:00,82.0,72.1,30.13,East,94,0.0,0.0,72,0.00,,---,0.00,VWS V14.00,2013-08-24 15:35:00,
2013-08-24 10:40:00,82.2,71.9,30.13,ESE,123,0.0,0.0,71,0.00,,---,0.00,VWS V14.00,2013-08-24 15:40:00,
2013-08-24 10:45:00,82.4,72.1,30.13,SE,136,0.0,0.0,71,0.00,,---,0.00,VWS V14.00,2013-08-24 15:45:00,
2013-08-24 10:50:00,82.2,71.4,30.13,SE,136,0.0,0.0,70,0.00,,---,0.00,VWS V14.00,2013-08-24 15:50:00,
2013-08-24 10:55:00,82.6,71.4,30.13,SE,136,0.0,0.0,69,0.00,,---,0.00,VWS V14.00,2013-08-24 15:55:00,
2013-08-24 11:00:00,82.8,72.0,30.13,SE,138,0.0,0.0,70,0.00,,---,0.00,VWS V14.00,2013-08-24 16:00:00,
2013-08-24 11:05:00,83.0,71.8,30.14,SE,138,0.0,0.0,69,0.00,,---,0.00,VWS V14.00,2013-08-24 16:05:00,
2013-08-24 11:10:00,83.2,71.1,30.13,SE,138,0.0,0.0,67,0.00,,---,0.00,VWS V14.00,2013-08-24 16:10:00,
2013-08-24 11:15:00,83.4,70.4,30.13,SSE,150,0.0,0.0,65,0.00,,---,0.00,VWS V14.00,2013-08-24 16:15:00,
2013-08-24 11:20:00,83.4,71.3,30.13,SSE,153,0.0,0.0,67,0.00,,---,0.00,VWS V14.00,2013-08-24 16:20:00,
2013-08-24 11:25:00,83.4,70.9,30.13,SSE,153,0.0,0.0,66,0.00,,---,0.00,VWS V14.00,2013-08-24 16:25:00,
2013-08-24 11:30:00,83.4,71.3,30.13,SSE,153,0.0,0.0,67,0.00,,---,0.00,VWS V14.00,2013-08-24 16:30:00,
2013-08-24 11:35:00,83.6,70.6,30.13,SSE,151,0.0,0.0,65,0.00,,---,0.00,VWS V14.00,2013-08-24 16:35:00,
2013-08-24 11:40:00,83.8,70.8,30.13,SSE,151,0.0,0.0,65,0.00,,---,0.00,VWS V14.00,2013-08-24 16:40:00,
2013-08-24 11:45:00,83.6,70.6,30.13,SSE,151,0.0,0.0,65,0.00,,---,0.00,VWS V14.00,2013-08-24 16:45:00,
2013-08-24 11:50:00,84.1,70.6,30.12,SSE,151,0.0,0.0,64,0.00,,---,0.00,VWS V14.00,2013-08-24 16:50:00,
2013-08-24 11:55:00,84.1,69.7,30.12,SSE,150,0.0,0.0,62,0.00,,---,0.00,VWS V14.00,2013-08-24 16:55:00,
2013-08-24 12:00:00,84.3,69.9,30.12,SSE,149,0.0,0.0,62,0.00,,---,0.00,VWS V14.00,2013-08-24 17:00:00,
2013-08-24 12:05:00,84.7,70.2,30.12,SSE,149,0.0,0.0,62,0.00,,---,0.00,VWS V14.00,2013-08-24 17:05:00,
2013-08-24 12:10:00,84.3,69.9,30.13,SSE,149,0.0,0.0,62,0.00,,---,0.00,VWS V14.00,2013-08-24 17:10:00,
2013-08-24 12:15:00,84.3,69.9,30.13,SSE,149,0.0,0.0,62,0.00,,---,0.00,VWS V14.00,2013-08-24 17:15:00,
2013-08-24 12:20:00,84.7,70.2,30.12,SSE,149,0.0,0.0,62,0.00,,---,0.00,VWS V14.00,2013-08-24 17:20:00,
2013-08-24 12:25:00,85.1,70.2,30.12,SSE,149,0.0,0.0,61,0.00,,---,0.00,VWS V14.00,2013-08-24 17:25:00,
2013-08-24 12:29:00,84.7,69.8,30.12,SSE,149,0.0,0.0,61,0.00,,---,0.00,VWS V14.00,2013-08-24 17:29:00,
2013-08-24 12:34:00,84.7,69.8,30.12,SSE,149,0.0,0.0,61,0.00,,---,0.00,VWS V14.00,2013-08-24 17:34:00,
2013-08-24 12:39:00,85.1,69.7,30.12,SSE,149,0.0,0.0,60,0.00,,---,0.00,VWS V14.00,2013-08-24 17:39:00,
2013-08-24 12:44:00,85.3,69.4,30.12,SSE,149,0.0,0.0,59,0.00,,---,0.00,VWS V14.00,2013-08-24 17:44:00,
2013-08-24 12:49:00,85.7,70.2,30.12,SSE,149,0.0,0.0,60,0.00,,---,0.00,VWS V14.00,2013-08-24 17:49:00,
2013-08-24 12:54:00,85.5,69.1,30.12,SSE,149,0.0,0.0,58,0.00,,---,0.00,VWS V14.00,2013-08-24 17:54:00,
2013-08-24 12:59:00,85.5,69.6,30.12,SSE,149,0.0,0.0,59,0.00,,---,0.00,VWS V14.00,2013-08-24 17:59:00,
2013-08-24 13:04:00,85.3,68.9,30.12,SSE,149,0.0,0.0,58,0.00,,---,0.00,VWS V14.00,2013-08-24 18:04:00,
2013-08-24 13:09:00,85.7,68.7,30.11,SSE,149,0.0,0.0,57,0.00,,---,0.00,VWS V14.00,2013-08-24 18:09:00,
2013-08-24 13:14:00,86.1,69.1,30.11,SSE,149,0.0,0.0,57,0.00,,---,0.00,VWS V14.00,2013-08-24 18:14:00,
2013-08-24 13:19:00,85.9,69.4,30.11,SSE,149,0.0,0.0,58,0.00,,---,0.00,VWS V14.00,2013-08-24 18:19:00,
2013-08-24 13:24:00,86.3,69.3,30.11,SSE,149,0.0,0.0,57,0.00,,---,0.00,VWS V14.00,2013-08-24 18:24:00,
2013-08-24 13:29:00,86.5,69.0,30.10,SSE,149,0.0,0.0,56,0.00,,---,0.00,VWS V14.00,2013-08-24 18:29:00,
2013-08-24 13:34:00,87.2,69.6,30.10,SSE,149,0.0,0.0,56,0.00,,---,0.00,VWS V14.00,2013-08-24 18:34:00,
2013-08-24 13:39:00,86.7,68.6,30.10,SSE,149,0.0,0.0,55,0.00,,---,0.00,VWS V14.00,2013-08-24 18:39:00,
2013-08-24 13:44:00,86.5,67.9,30.10,SSE,149,0.0,0.0,54,0.00,,---,0.00,VWS V14.00,2013-08-24 18:44:00,
2013-08-24 13:49:00,86.7,68.6,30.10,SSE,149,0.0,0.0,55,0.00,,---,0.00,VWS V14.00,2013-08-24 18:49:00,
2013-08-24 13:54:00,87.0,68.9,30.10,SSE,147,0.0,0.0,55,0.00,,---,0.00,VWS V14.00,2013-08-24 18:54:00,
2013-08-24 13:59:00,86.7,68.6,30.10,SE,145,0.0,0.0,55,0.00,,---,0.00,VWS V14.00,2013-08-24 18:59:00,
2013-08-24 14:04:00,87.2,69.1,30.10,SE,145,0.0,0.0,55,0.00,,---,0.00,VWS V14.00,2013-08-24 19:04:00,
2013-08-24 14:09:00,87.0,68.4,30.10,SE,143,0.0,0.0,54,0.00,,---,0.00,VWS V14.00,2013-08-24 19:09:00,
2013-08-24 14:14:00,86.5,68.4,30.10,SE,143,0.0,0.0,55,0.00,,---,0.00,VWS V14.00,2013-08-24 19:14:00,
2013-08-24 14:19:00,87.0,67.8,30.10,SE,143,0.0,1.0,53,0.00,,---,0.00,VWS V14.00,2013-08-24 19:19:00,
2013-08-24 14:24:00,87.0,68.4,30.10,SE,142,0.0,0.0,54,0.00,,---,0.00,VWS V14.00,2013-08-24 19:24:00,
2013-08-24 14:29:00,87.0,68.4,30.10,SE,142,0.0,0.0,54,0.00,,---,0.00,VWS V14.00,2013-08-24 19:29:00,
2013-08-24 14:34:00,87.0,68.4,30.10,SE,141,0.0,0.0,54,0.00,,---,0.00,VWS V14.00,2013-08-24 19:34:00,
2013-08-24 14:39:00,87.0,68.4,30.10,SE,139,0.0,0.0,54,0.00,,---,0.00,VWS V14.00,2013-08-24 19:39:00,
2013-08-24 14:44:00,87.4,69.3,30.10,SE,139,0.0,0.0,55,0.00,,---,0.00,VWS V14.00,2013-08-24 19:44:00,
2013-08-24 14:49:00,87.6,69.4,30.09,SE,139,0.0,1.0,55,0.00,,---,0.00,VWS V14.00,2013-08-24 19:49:00,
2013-08-24 14:54:00,87.4,68.7,30.09,SE,139,0.0,0.0,54,0.00,,---,0.00,VWS V14.00,2013-08-24 19:54:00,
2013-08-24 14:59:00,87.8,68.6,30.09,SE,139,0.0,0.0,53,0.00,,---,0.00,VWS V14.00,2013-08-24 19:59:00,
2013-08-24 15:04:00,87.6,68.4,30.09,SE,139,0.0,0.0,53,0.00,,---,0.00,VWS V14.00,2013-08-24 20:04:00,
2013-08-24 15:09:00,87.4,68.7,30.09,SE,139,0.0,0.0,54,0.00,,---,0.00,VWS V14.00,2013-08-24 20:09:00,
2013-08-24 15:14:00,87.4,68.2,30.09,SE,134,5.0,6.0,53,0.00,,---,0.00,VWS V14.00,2013-08-24 20:14:00,
2013-08-24 15:19:00,87.2,68.0,30.09,SE,134,5.0,5.0,53,0.00,,---,0.00,VWS V14.00,2013-08-24 20:19:00,
2013-08-24 15:24:00,87.4,68.7,30.09,SE,133,7.0,7.0,54,0.00,,---,0.00,VWS V14.00,2013-08-24 20:24:00,
2013-08-24 15:29:00,87.4,68.7,30.09,SE,132,3.0,4.0,54,0.00,,---,0.00,VWS V14.00,2013-08-24 20:29:00,
2013-08-24 15:34:00,87.4,68.7,30.08,SE,132,0.0,0.0,54,0.00,,---,0.00,VWS V14.00,2013-08-24 20:34:00,
2013-08-24 15:39:00,87.6,68.9,30.08,SE,132,4.0,5.0,54,0.00,,---,0.00,VWS V14.00,2013-08-24 20:39:00,
2013-08-24 15:44:00,87.6,67.8,30.08,SE,131,4.0,4.0,52,0.00,,---,0.00,VWS V14.00,2013-08-24 20:44:00,
2013-08-24 15:49:00,87.4,68.2,30.08,SE,132,5.0,6.0,53,0.00,,---,0.00,VWS V14.00,2013-08-24 20:49:00,
2013-08-24 15:54:00,87.2,69.1,30.08,SE,132,3.0,3.0,55,0.00,,---,0.00,VWS V14.00,2013-08-24 20:54:00,
2013-08-24 15:59:00,87.0,68.9,30.08,SE,132,3.0,3.0,55,0.00,,---,0.00,VWS V14.00,2013-08-24 20:59:00,
2013-08-24 16:04:00,87.4,68.2,30.08,SE,132,0.0,0.0,53,0.00,,---,0.00,VWS V14.00,2013-08-24 21:04:00,
2013-08-24 16:09:00,87.6,68.4,30.07,SE,132,6.0,6.0,53,0.00,,---,0.00,VWS V14.00,2013-08-24 21:09:00,
2013-08-24 16:14:00,87.8,68.6,30.07,SE,132,4.0,5.0,53,0.00,,---,0.00,VWS V14.00,2013-08-24 21:14:00,
2013-08-24 16:19:00,88.2,68.4,30.07,SE,132,0.0,0.0,52,0.00,,---,0.00,VWS V14.00,2013-08-24 21:19:00,
2013-08-24 16:24:00,88.2,67.2,30.07,SE,132,1.0,3.0,50,0.00,,---,0.00,VWS V14.00,2013-08-24 21:24:00,
2013-08-24 16:29:00,88.4,68.6,30.07,SE,130,5.0,9.0,52,0.00,,---,0.00,VWS V14.00,2013-08-24 21:29:00,
2013-08-24 16:34:00,87.8,68.0,30.07,SE,130,4.0,6.0,52,0.00,,---,0.00,VWS V14.00,2013-08-24 21:34:00,
2013-08-24 16:39:00,87.4,68.2,30.08,SE,130,2.0,2.0,53,0.00,,---,0.00,VWS V14.00,2013-08-24 21:39:00,
2013-08-24 16:44:00,87.0,68.9,30.07,SE,130,0.0,0.0,55,0.00,,---,0.00,VWS V14.00,2013-08-24 21:44:00,
2013-08-24 16:49:00,87.2,70.1,30.07,SE,130,0.0,0.0,57,0.00,,---,0.00,VWS V14.00,2013-08-24 21:49:00,
2013-08-24 16:54:00,87.6,68.9,30.07,SE,130,2.0,3.0,54,0.00,,---,0.00,VWS V14.00,2013-08-24 21:54:00,
2013-08-24 16:59:00,87.8,68.0,30.07,SE,131,6.0,7.0,52,0.00,,---,0.00,VWS V14.00,2013-08-24 21:59:00,
2013-08-24 17:04:00,87.8,68.0,30.07,SE,131,0.0,5.0,52,0.00,,---,0.00,VWS V14.00,2013-08-24 22:04:00,
2013-08-24 17:09:00,88.0,68.2,30.07,SE,131,2.0,5.0,52,0.00,,---,0.00,VWS V14.00,2013-08-24 22:09:00,
2013-08-24 17:14:00,88.2,68.9,30.07,SE,131,0.0,0.0,53,0.00,,---,0.00,VWS V14.00,2013-08-24 22:14:00,
2013-08-24 17:19:00,88.2,68.4,30.07,SE,131,0.0,2.0,52,0.00,,---,0.00,VWS V14.00,2013-08-24 22:19:00,
2013-08-24 17:24:00,88.4,68.6,30.07,SE,131,0.0,5.0,52,0.00,,---,0.00,VWS V14.00,2013-08-24 22:24:00,
2013-08-24 17:29:00,88.4,68.6,30.07,SE,131,0.0,0.0,52,0.00,,---,0.00,VWS V14.00,2013-08-24 22:29:00,
2013-08-24 17:34:00,88.4,68.0,30.07,SE,131,3.0,4.0,51,0.00,,---,0.00,VWS V14.00,2013-08-24 22:34:00,
2013-08-24 17:39:00,88.4,68.0,30.07,SE,131,0.0,3.0,51,0.00,,---,0.00,VWS V14.00,2013-08-24 22:39:00,
2013-08-24 17:44:00,88.0,68.2,30.07,SE,131,0.0,2.0,52,0.00,,---,0.00,VWS V14.00,2013-08-24 22:44:00,
2013-08-24 17:49:00,87.6,68.4,30.06,SE,131,0.0,0.0,53,0.00,,---,0.00,VWS V14.00,2013-08-24 22:49:00,
2013-08-24 17:54:00,87.6,69.4,30.06,SE,131,0.0,0.0,55,0.00,,---,0.00,VWS V14.00,2013-08-24 22:54:00,
2013-08-24 17:59:00,87.6,68.4,30.07,SE,131,0.0,0.0,53,0.00,,---,0.00,VWS V14.00,2013-08-24 22:59:00,
2013-08-24 18:04:00,87.4,68.2,30.07,SE,130,1.0,1.0,53,0.00,,---,0.00,VWS V14.00,2013-08-24 23:04:00,
2013-08-24 18:09:00,87.0,67.8,30.07,SE,130,2.0,2.0,53,0.00,,---,0.00,VWS V14.00,2013-08-24 23:09:00,
2013-08-24 18:14:00,86.7,68.6,30.07,SE,130,2.0,3.0,55,0.00,,---,0.00,VWS V14.00,2013-08-24 23:14:00,
2013-08-24 18:19:00,86.5,67.9,30.07,SE,130,0.0,0.0,54,0.00,,---,0.00,VWS V14.00,2013-08-24 23:19:00,
2013-08-24 18:24:00,86.3,67.7,30.07,SE,130,0.0,0.0,54,0.00,,---,0.00,VWS V14.00,2013-08-24 23:24:00,
2013-08-24 18:29:00,86.1,67.5,30.07,SE,130,0.0,0.0,54,0.00,,---,0.00,VWS V14.00,2013-08-24 23:29:00,
2013-08-24 18:34:00,86.1,68.1,30.06,SE,130,0.0,0.0,55,0.00,,---,0.00,VWS V14.00,2013-08-24 23:34:00,
2013-08-24 18:39:00,85.9,68.4,30.07,SE,130,0.0,0.0,56,0.00,,---,0.00,VWS V14.00,2013-08-24 23:39:00,
2013-08-24 18:44:00,85.7,68.2,30.06,SE,130,0.0,0.0,56,0.00,,---,0.00,VWS V14.00,2013-08-24 23:44:00,
2013-08-24 18:49:00,85.5,68.5,30.07,SE,130,0.0,0.0,57,0.00,,---,0.00,VWS V14.00,2013-08-24 23:49:00,
2013-08-24 18:54:00,85.3,68.9,30.07,SE,130,0.0,0.0,58,0.00,,---,0.00,VWS V14.00,2013-08-24 23:54:00,
2013-08-24 18:59:00,85.1,68.7,30.07,SE,130,0.0,0.0,58,0.00,,---,0.00,VWS V14.00,2013-08-24 23:59:00,
2013-08-24 19:04:00,84.9,71.4,30.06,SE,130,0.0,0.0,64,0.00,,---,0.00,VWS V14.00,2013-08-25 00:04:00,
2013-08-24 19:09:00,84.7,70.7,30.06,SE,130,0.0,0.0,63,0.00,,---,0.00,VWS V14.00,2013-08-25 00:09:00,
2013-08-24 19:14:00,84.3,70.8,30.06,SE,130,0.0,0.0,64,0.00,,---,0.00,VWS V14.00,2013-08-25 00:14:00,
2013-08-24 19:19:00,84.1,71.1,30.07,SE,130,0.0,0.0,65,0.00,,---,0.00,VWS V14.00,2013-08-25 00:19:00,
2013-08-24 19:24:00,83.8,71.2,30.07,SE,130,0.0,0.0,66,0.00,,---,0.00,VWS V14.00,2013-08-25 00:24:00,
2013-08-24 19:29:00,83.2,71.1,30.07,SE,130,0.0,0.0,67,0.00,,---,0.00,VWS V14.00,2013-08-25 00:29:00,
2013-08-24 19:34:00,82.8,71.2,30.07,SE,130,0.0,0.0,68,0.00,,---,0.00,VWS V14.00,2013-08-25 00:34:00,
2013-08-24 19:39:00,82.2,71.0,30.07,SE,130,0.0,0.0,69,0.00,,---,0.00,VWS V14.00,2013-08-25 00:39:00,
2013-08-24 19:44:00,81.6,70.9,30.08,SE,130,0.0,0.0,70,0.00,,---,0.00,VWS V14.00,2013-08-25 00:44:00,
2013-08-24 19:49:00,81.4,70.7,30.08,SE,130,0.0,0.0,70,0.00,,---,0.00,VWS V14.00,2013-08-25 00:49:00,
2013-08-24 19:54:00,81.2,71.3,30.08,SE,130,0.0,0.0,72,0.00,,---,0.00,VWS V14.00,2013-08-25 00:54:00,
2013-08-24 19:59:00,80.9,71.4,30.08,SE,130,0.0,0.0,73,0.00,,---,0.00,VWS V14.00,2013-08-25 00:59:00,
2013-08-24 20:04:00,80.5,71.5,30.08,SE,130,0.0,0.0,74,0.00,,---,0.00,VWS V14.00,2013-08-25 01:04:00,
2013-08-24 20:09:00,80.1,71.5,30.08,SE,130,0.0,0.0,75,0.00,,---,0.00,VWS V14.00,2013-08-25 01:09:00,
2013-08-24 20:14:00,79.8,71.6,30.08,SE,130,0.0,0.0,76,0.00,,---,0.00,VWS V14.00,2013-08-25 01:14:00,
2013-08-24 20:19:00,79.4,71.6,30.08,SE,130,0.0,0.0,77,0.00,,---,0.00,VWS V14.00,2013-08-25 01:19:00,
2013-08-24 20:24:00,79.2,71.8,30.09,SE,130,0.0,0.0,78,0.00,,---,0.00,VWS V14.00,2013-08-25 01:24:00,
2013-08-24 20:29:00,79.0,71.6,30.08,SE,130,0.0,0.0,78,0.00,,---,0.00,VWS V14.00,2013-08-25 01:29:00,
2013-08-24 20:34:00,78.8,71.7,30.09,SE,130,0.0,0.0,79,0.00,,---,0.00,VWS V14.00,2013-08-25 01:34:00,
2013-08-24 20:39:00,78.6,71.6,30.09,SE,130,0.0,0.0,79,0.00,,---,0.00,VWS V14.00,2013-08-25 01:39:00,
2013-08-24 20:44:00,78.5,71.4,30.09,SE,130,0.0,0.0,79,0.00,,---,0.00,VWS V14.00,2013-08-25 01:44:00,
2013-08-24 20:49:00,78.3,71.3,30.09,SE,130,0.0,0.0,79,0.00,,---,0.00,VWS V14.00,2013-08-25 01:49:00,
2013-08-24 20:54:00,78.1,71.4,30.09,SE,130,0.0,0.0,80,0.00,,---,0.00,VWS V14.00,2013-08-25 01:54:00,
2013-08-24 20:59:00,78.1,71.8,30.10,SE,130,0.0,0.0,81,0.00,,---,0.00,VWS V14.00,2013-08-25 01:59:00,
2013-08-24 21:04:00,78.1,71.8,30.09,SE,130,0.0,0.0,81,0.00,,---,0.00,VWS V14.00,2013-08-25 02:04:00,
2013-08-24 21:09:00,78.1,71.8,30.09,SE,130,0.0,0.0,81,0.00,,---,0.00,VWS V14.00,2013-08-25 02:09:00,
2013-08-24 21:14:00,77.9,71.2,30.10,SE,130,0.0,0.0,80,0.00,,---,0.00,VWS V14.00,2013-08-25 02:14:00,
2013-08-24 21:19:00,77.4,71.1,30.10,SE,130,2.0,3.0,81,0.00,,---,0.00,VWS V14.00,2013-08-25 02:19:00,
2013-08-24 21:24:00,77.2,70.9,30.10,SE,130,0.0,0.0,81,0.00,,---,0.00,VWS V14.00,2013-08-25 02:24:00,
2013-08-24 21:29:00,77.0,71.1,30.10,SE,130,0.0,0.0,82,0.00,,---,0.00,VWS V14.00,2013-08-25 02:29:00,
2013-08-24 21:34:00,77.0,70.7,30.11,SE,130,0.0,0.0,81,0.00,,---,0.00,VWS V14.00,2013-08-25 02:34:00,
2013-08-24 21:39:00,77.0,70.4,30.11,SE,130,0.0,0.0,80,0.00,,---,0.00,VWS V14.00,2013-08-25 02:39:00,
2013-08-24 21:44:00,76.8,70.9,30.11,SE,130,2.0,3.0,82,0.00,,---,0.00,VWS V14.00,2013-08-25 02:44:00,
2013-08-24 21:49:00,76.5,70.6,30.11,SE,130,4.0,4.0,82,0.00,,---,0.00,VWS V14.00,2013-08-25 02:49:00,
2013-08-24 21:54:00,76.3,70.4,30.11,SE,130,4.0,5.0,82,0.00,,---,0.00,VWS V14.00,2013-08-25 02:54:00,
2013-08-24 21:59:00,76.3,70.4,30.11,SE,130,0.0,0.0,82,0.00,,---,0.00,VWS V14.00,2013-08-25 02:59:00,
2013-08-24 22:04:00,76.0,70.1,30.11,SE,130,0.0,0.0,82,0.00,,---,0.00,VWS V14.00,2013-08-25 03:04:00,
2013-08-24 22:09:00,75.8,70.3,30.11,SE,130,0.0,0.0,83,0.00,,---,0.00,VWS V14.00,2013-08-25 03:09:00,
2013-08-24 22:14:00,75.8,69.9,30.11,SE,130,0.0,0.0,82,0.00,,---,0.00,VWS V14.00,2013-08-25 03:14:00,
2013-08-24 22:19:00,75.8,69.9,30.12,SE,130,0.0,0.0,82,0.00,,---,0.00,VWS V14.00,2013-08-25 03:19:00,
2013-08-24 22:24:00,75.8,69.9,30.12,SE,130,0.0,0.0,82,0.00,,---,0.00,VWS V14.00,2013-08-25 03:24:00,
2013-08-24 22:29:00,75.4,69.9,30.12,SE,130,0.0,0.0,83,0.00,,---,0.00,VWS V14.00,2013-08-25 03:29:00,
2013-08-24 22:34:00,75.1,69.6,30.12,SE,130,0.0,0.0,83,0.00,,---,0.00,VWS V14.00,2013-08-25 03:34:00,
2013-08-24 22:39:00,75.1,69.6,30.12,SE,130,0.0,0.0,83,0.00,,---,0.00,VWS V14.00,2013-08-25 03:39:00,
2013-08-24 22:44:00,75.1,69.6,30.12,SE,130,0.0,0.0,83,0.00,,---,0.00,VWS V14.00,2013-08-25 03:44:00,
2013-08-24 22:49:00,75.1,69.9,30.12,SE,130,0.0,0.0,84,0.00,,---,0.00,VWS V14.00,2013-08-25 03:49:00,
2013-08-24 22:54:00,75.1,69.9,30.12,SE,130,0.0,0.0,84,0.00,,---,0.00,VWS V14.00,2013-08-25 03:54:00,
2013-08-24 22:59:00,74.9,69.4,30.12,SE,130,0.0,0.0,83,0.00,,---,0.00,VWS V14.00,2013-08-25 03:59:00,
2013-08-24 23:01:00,74.7,69.6,30.12,SE,130,0.0,0.0,84,0.00,,---,0.00,VWS V14.00,2013-08-25 04:01:00,
2013-08-24 23:02:00,74.6,69.4,30.12,SE,130,0.0,0.0,84,0.00,,---,0.00,VWS V14.00,2013-08-25 04:02:00,
2013-08-24 23:07:00,74.2,69.4,30.12,SE,130,0.0,0.0,85,0.00,,---,0.00,VWS V14.00,2013-08-25 04:07:00,
2013-08-24 23:12:00,74.2,69.8,30.12,SE,130,0.0,0.0,86,0.00,,---,0.00,VWS V14.00,2013-08-25 04:12:00,
2013-08-24 23:17:00,74.0,69.6,30.12,SE,130,0.0,0.0,86,0.00,,---,0.00,VWS V14.00,2013-08-25 04:17:00,
2013-08-24 23:22:00,73.7,68.9,30.12,SE,130,0.0,0.0,85,0.00,,---,0.00,VWS V14.00,2013-08-25 04:22:00,
2013-08-24 23:27:00,73.5,69.1,30.12,SE,130,0.0,0.0,86,0.00,,---,0.00,VWS V14.00,2013-08-25 04:27:00,
2013-08-24 23:32:00,73.3,68.9,30.13,SE,130,0.0,0.0,86,0.00,,---,0.00,VWS V14.00,2013-08-25 04:32:00,
2013-08-24 23:37:00,73.2,68.8,30.13,SE,130,0.0,0.0,86,0.00,,---,0.00,VWS V14.00,2013-08-25 04:37:00,
2013-08-24 23:42:00,73.0,68.9,30.12,SE,130,0.0,0.0,87,0.00,,---,0.00,VWS V14.00,2013-08-25 04:42:00,
2013-08-24 23:47:00,73.0,68.9,30.12,SE,130,0.0,0.0,87,0.00,,---,0.00,VWS V14.00,2013-08-25 04:47:00,
2013-08-24 23:52:00,73.0,68.9,30.12,SE,130,0.0,0.0,87,0.00,,---,0.00,VWS V14.00,2013-08-25 04:52:00,
2013-08-24 23:57:00,72.8,68.7,30.12,SE,130,0.0,0.0,87,0.00,,---,0.00,VWS V14.00,2013-08-25 04:57:00,